Nearby METAR Reports

 

YMER - Merimbula Arpt, Australia
Distance from station: SE 12km
Updated: Tue, 07-Apr-2020 1:00am AEST
Overcast
Overcast
 Wind from calm
Wind: Calm
Temperature: 9°C
Dew Point: 9°C
Humidity: 100%
Barometer: 1023 hPa
Clouds: Overcast
Visibility: 10 km
Cloud details: Overcast 1615 m
2020/04/06 15:00 YMER 061500Z AUTO 00000KT 9999 // OVC053 09/09 Q1023
YCOM - Cooma Snowy Mtns, Australia
Distance from station: NW 96km
Updated: Tue, 07-Apr-2020 1:00am AEST
Overcast
Overcast
 Wind from WSW
Wind: WSW 11 km/h
Temperature: 6°C
Wind Chill: 4°C
Dew Point: 2°C
Humidity: 76%
Barometer: 1022 hPa
Clouds: Overcast
Visibility: 10 km
Cloud details: Overcast 1158 m
2020/04/06 15:00 YCOM 061500Z AUTO 24006KT 9999 // OVC038 06/02 Q1022
 
YSCB - Canberra (civ/Mi, Australia
Distance from station: NNW 182km
Updated: Tue, 07-Apr-2020 1:00am AEST
Overcast
Overcast
 Wind from calm
Wind: Calm
Temperature: 12°C
Dew Point: 9°C
Humidity: 82%
Barometer: 1022 hPa
Clouds: Overcast
Visibility: 10 km
Cloud details: Mostly cloudy 762 m
Mostly cloudy 945 m
Overcast 1798 m
2020/04/06 15:00 YSCB 061500Z AUTO 00000KT 9999 // BKN025 BKN031 OVC059 12/09 Q1022
YSNW - Nowra (aus-Navy), Australia
Distance from station: NNE 219km
Updated: Tue, 07-Apr-2020 1:00am AEST
Overcast
Overcast
 Wind from calm
Wind: Calm
Temperature: 15°C
Dew Point: 13°C
Humidity: 88%
Barometer: 1022 hPa
Clouds: Overcast
Visibility: 10 km
Cloud details: Partly cloudy 914 m
Partly cloudy 1067 m
Overcast 1250 m
2020/04/06 15:00 YSNW 061500Z AUTO 00000KT 9999 // SCT030 SCT035 OVC041 15/13 Q1022
 
YMAY - Albury Airport, Australia
Distance from station: WNW 271km
Updated: Tue, 07-Apr-2020 1:00am AEST
Clear
Clear
 Wind from N
Wind: N 2 km/h
Temperature: 9°C
Dew Point: 8°C
Humidity: 94%
Barometer: 1021 hPa
Clouds: Clear
Visibility: 10 km
2020/04/06 15:00 YMAY 061500Z AUTO 01001KT 9999 // NCD 09/08 Q1021
YSWG - Wagga Wagga(Cv/M, Australia
Distance from station: NW 283km
Updated: Tue, 07-Apr-2020 1:00am AEST
Clear
Clear
 Wind from calm
Wind: Calm
Temperature: 8°C
Dew Point: 6°C
Humidity: 87%
Barometer: 1021 hPa
Clouds: Clear
Visibility: 10 km
2020/04/06 15:00 YSWG 061500Z AUTO 00000KT 9999 // NCD 08/06 Q1021
 
YWGT - Wangaratta Arp, Australia
Distance from station: W 317km
Updated: Tue, 07-Apr-2020 1:00am AEST
Clear
Clear
 Wind from S
Wind: S 6 km/h
Temperature: 8°C
Dew Point: 7°C
Humidity: 93%
Barometer: 1021 hPa
Clouds: Clear
Visibility: 10 km
2020/04/06 15:00 YWGT 061500Z AUTO 18003KT 9999 // NCD 08/07 Q1021
YSSY - Sydney Intl Airp, Australia
Distance from station: NNE 343km
Updated: Tue, 07-Apr-2020 1:00am AEST
Mostly cloudy
Mostly cloudy
 Wind from S
Wind: S 26 km/h
Temperature: 16°C
Dew Point: 14°C
Humidity: 88%
Barometer: 1021 hPa
Clouds: Mostly cloudy
Visibility: 10 km
Cloud details: Few Clouds 549 m
Partly cloudy 914 m
Mostly cloudy 2134 m
2020/04/06 15:00 YSSY 061500Z 18014KT 9999 FEW018 SCT030 BKN070 16/14 Q1021